Time;durP1;ratioP1;P1;durP2;ratioP2;P2;SDS_P1;SDS_P2;PMS_P1;PMS_P2;Temp;Humidity;BMP_temperature;BMP_pressure;BME280_temperature;BME280_humidity;BME280_pressure;Samples;Min_cycle;Max_cycle;Signal;HPM_P1;HPM_P2
2022/01/07 00:01:01;;;;;;;16.50;9.83;;;;;;;;;;4941393;28;20988;-62
2022/01/07 00:03:29;;;;;;;15.37;9.20;;;;;;;;;;4935927;28;20203;-62
2022/01/07 00:05:58;;;;;;;8.60;5.77;;;;;;;;;;4934044;29;20220;-62
2022/01/07 00:08:26;;;;;;;7.40;4.93;;;;;;;;;;4929296;29;20200;-63
2022/01/07 00:10:54;;;;;;;8.00;5.23;;;;;;;;;;4929314;29;20228;-63
2022/01/07 00:13:21;;;;;;;7.63;5.33;;;;;;;;;;4947547;28;20244;-62
2022/01/07 00:15:49;;;;;;;6.17;4.73;;;;;;;;;;4928224;29;20733;-62
2022/01/07 00:18:16;;;;;;;7.17;5.20;;;;;;;;;;4932095;29;20219;-63
2022/01/07 00:20:44;;;;;;;5.70;4.87;;;;;;;;;;4926464;29;20302;-63
2022/01/07 00:23:11;;;;;;;5.47;4.40;;;;;;;;;;4930102;29;20208;-62
2022/01/07 00:25:38;;;;;;;7.90;4.23;;;;;;;;;;4929339;29;20659;-63
2022/01/07 00:28:07;;;;;;;7.43;5.00;;;;;;;;;;4922761;29;20889;-62
2022/01/07 00:30:36;;;;;;;8.27;5.63;;;;;;;;;;4928423;29;20222;-62
2022/01/07 00:33:04;;;;;;;11.70;5.93;;;;;;;;;;4922499;29;20218;-62
2022/01/07 00:35:33;;;;;;;10.93;6.83;;;;;;;;;;4935877;28;20236;-62
2022/01/07 00:38:00;;;;;;;7.50;5.30;;;;;;;;;;4922118;28;20222;-62
2022/01/07 00:40:27;;;;;;;8.10;5.13;;;;;;;;;;4921256;28;20233;-62
2022/01/07 00:42:55;;;;;;;7.03;5.13;;;;;;;;;;4928556;28;20207;-63
2022/01/07 00:45:23;;;;;;;7.10;5.17;;;;;;;;;;4924555;28;21704;-62
2022/01/07 00:47:54;;;;;;;9.70;5.47;;;;;;;;;;4927481;28;20356;-63
2022/01/07 00:50:22;;;;;;;5.73;5.00;;;;;;;;;;4925288;29;20219;-63
2022/01/07 00:52:50;;;;;;;6.00;4.43;;;;;;;;;;4929547;29;20575;-63
2022/01/07 00:55:17;;;;;;;9.80;5.33;;;;;;;;;;4927336;28;20214;-62
2022/01/07 00:57:47;;;;;;;8.43;5.40;;;;;;;;;;4928848;29;20221;-63
2022/01/07 01:00:16;;;;;;;8.60;5.23;;;;;;;;;;4940930;28;20224;-62
2022/01/07 01:02:44;;;;;;;6.53;5.37;;;;;;;;;;4943336;28;20646;-61
2022/01/07 01:05:13;;;;;;;9.13;5.30;;;;;;;;;;4945508;28;20216;-63
2022/01/07 01:07:47;;;;;;;6.40;5.20;;;;;;;;;;5082393;27;21155;-62
2022/01/07 01:10:15;;;;;;;7.97;5.73;;;;;;;;;;5058786;28;20213;-63
2022/01/07 01:12:44;;;;;;;11.93;5.07;;;;;;;;;;5079890;28;20222;-62
2022/01/07 01:15:12;;;;;;;12.70;7.07;;;;;;;;;;5085819;28;20212;-62
2022/01/07 01:17:40;;;;;;;9.57;5.73;;;;;;;;;;5053473;28;20231;-62
2022/01/07 01:20:09;;;;;;;6.07;5.47;;;;;;;;;;5080247;28;20223;-63
2022/01/07 01:22:37;;;;;;;8.50;5.27;;;;;;;;;;5044694;28;20211;-64
2022/01/07 01:25:05;;;;;;;7.83;5.20;;;;;;;;;;5075796;28;20221;-62
2022/01/07 01:27:35;;;;;;;6.90;4.63;;;;;;;;;;5076271;28;20224;-62
2022/01/07 01:30:03;;;;;;;10.13;5.87;;;;;;;;;;5082742;28;20232;-62
2022/01/07 01:32:30;;;;;;;8.23;5.70;;;;;;;;;;5084452;28;20659;-64
2022/01/07 01:34:58;;;;;;;10.73;6.63;;;;;;;;;;5083221;28;20208;-63
2022/01/07 01:37:29;;;;;;;9.43;6.47;;;;;;;;;;5079028;28;20228;-63
2022/01/07 01:39:56;;;;;;;8.30;6.23;;;;;;;;;;5048121;28;20217;-63
2022/01/07 01:42:27;;;;;;;5.93;5.10;;;;;;;;;;5045203;28;20209;-63
2022/01/07 01:44:55;;;;;;;7.40;5.70;;;;;;;;;;5076887;28;20223;-63
2022/01/07 01:47:22;;;;;;;9.07;5.80;;;;;;;;;;5092378;28;20284;-63
2022/01/07 01:49:49;;;;;;;7.87;5.90;;;;;;;;;;5084859;28;20268;-62
2022/01/07 01:52:17;;;;;;;8.30;5.73;;;;;;;;;;5071158;28;20259;-62
2022/01/07 01:54:44;;;;;;;12.13;6.30;;;;;;;;;;5107312;27;20202;-62
2022/01/07 01:57:13;;;;;;;16.73;7.00;;;;;;;;;;5068137;28;20238;-62
2022/01/07 01:59:41;;;;;;;12.17;6.67;;;;;;;;;;5087655;28;20731;-62
2022/01/07 02:02:09;;;;;;;13.00;7.30;;;;;;;;;;5076974;28;20198;-62
2022/01/07 02:04:38;;;;;;;12.23;6.77;;;;;;;;;;5098284;28;20215;-62
2022/01/07 02:07:07;;;;;;;12.03;6.77;;;;;;;;;;5115675;27;20678;-62
2022/01/07 02:09:36;;;;;;;17.77;6.93;;;;;;;;;;5082864;28;20209;-61
2022/01/07 02:12:05;;;;;;;13.03;7.30;;;;;;;;;;5079139;28;20228;-62
2022/01/07 02:14:34;;;;;;;17.17;7.60;;;;;;;;;;5084346;28;20201;-62
2022/01/07 02:17:09;;;;;;;18.33;7.43;;;;;;;;;;5067688;28;20243;-63
2022/01/07 02:19:37;;;;;;;18.73;7.77;;;;;;;;;;5060038;28;20218;-62
2022/01/07 02:22:06;;;;;;;15.73;7.87;;;;;;;;;;5053696;28;20211;-62
2022/01/07 02:24:35;;;;;;;24.13;7.43;;;;;;;;;;5061385;28;20232;-64
2022/01/07 02:27:03;;;;;;;20.37;7.97;;;;;;;;;;5069412;28;20226;-62
2022/01/07 02:29:31;;;;;;;17.83;8.20;;;;;;;;;;5068531;28;20209;-62
2022/01/07 02:31:58;;;;;;;21.50;8.27;;;;;;;;;;5066205;28;20271;-62
2022/01/07 02:34:25;;;;;;;21.17;8.27;;;;;;;;;;5063288;28;20260;-63
2022/01/07 02:36:53;;;;;;;18.43;8.00;;;;;;;;;;5086832;27;20223;-63
2022/01/07 02:39:20;;;;;;;14.33;8.07;;;;;;;;;;5093022;28;20203;-62
2022/01/07 02:41:48;;;;;;;21.17;8.70;;;;;;;;;;5065656;28;20627;-63
2022/01/07 02:44:18;;;;;;;16.90;8.33;;;;;;;;;;5077486;28;20294;-62
2022/01/07 02:46:45;;;;;;;20.83;8.10;;;;;;;;;;5062072;28;20228;-62
2022/01/07 02:49:15;;;;;;;27.23;8.87;;;;;;;;;;5088592;27;20207;-63
2022/01/07 02:51:43;;;;;;;13.37;8.17;;;;;;;;;;5059011;28;20205;-62
2022/01/07 02:54:10;;;;;;;21.67;9.17;;;;;;;;;;5054978;28;20214;-62
2022/01/07 02:56:38;;;;;;;22.20;9.23;;;;;;;;;;5053169;28;20254;-62
2022/01/07 02:59:07;;;;;;;19.00;9.53;;;;;;;;;;5071439;28;20295;-62
2022/01/07 03:01:35;;;;;;;20.27;9.67;;;;;;;;;;5066876;28;20203;-62
2022/01/07 03:04:03;;;;;;;22.20;9.67;;;;;;;;;;5093513;27;20280;-62
2022/01/07 03:06:33;;;;;;;19.60;9.37;;;;;;;;;;5067060;28;20261;-63
2022/01/07 03:09:01;;;;;;;28.43;9.60;;;;;;;;;;5062066;28;20199;-63
2022/01/07 03:11:28;;;;;;;19.57;9.17;;;;;;;;;;5064759;28;20202;-62
2022/01/07 03:13:55;;;;;;;19.40;9.10;;;;;;;;;;5077409;28;20210;-62
2022/01/07 03:16:23;;;;;;;20.10;9.37;;;;;;;;;;5093879;27;20284;-62
2022/01/07 03:18:53;;;;;;;23.30;9.53;;;;;;;;;;5067450;28;20233;-62
2022/01/07 03:21:20;;;;;;;17.57;8.57;;;;;;;;;;5052785;28;20484;-61
2022/01/07 03:23:48;;;;;;;28.27;9.70;;;;;;;;;;5068631;28;20201;-63
2022/01/07 03:26:16;;;;;;;28.10;11.03;;;;;;;;;;5070793;28;20266;-63
2022/01/07 03:28:45;;;;;;;30.33;11.10;;;;;;;;;;5064033;28;20206;-62
2022/01/07 03:31:12;;;;;;;28.53;11.33;;;;;;;;;;5063168;28;20202;-62
2022/01/07 03:33:41;;;;;;;26.77;10.90;;;;;;;;;;5069297;28;20226;-64
2022/01/07 03:36:08;;;;;;;28.13;11.87;;;;;;;;;;5054029;28;20217;-64
2022/01/07 03:38:37;;;;;;;25.33;12.30;;;;;;;;;;5078329;28;20209;-63
2022/01/07 03:41:04;;;;;;;28.97;12.53;;;;;;;;;;5066723;28;20204;-62
2022/01/07 03:43:34;;;;;;;24.53;11.67;;;;;;;;;;5063758;28;20203;-62
2022/01/07 03:46:02;;;;;;;27.23;12.63;;;;;;;;;;5073459;28;20641;-62
2022/01/07 03:48:30;;;;;;;26.67;12.00;;;;;;;;;;5068540;28;21688;-62
2022/01/07 03:50:57;;;;;;;25.93;11.90;;;;;;;;;;5088494;27;20209;-64
2022/01/07 03:53:25;;;;;;;29.23;13.57;;;;;;;;;;5082271;28;20198;-63
2022/01/07 03:55:52;;;;;;;29.90;13.60;;;;;;;;;;5063308;28;20268;-63
2022/01/07 03:58:20;;;;;;;24.27;12.17;;;;;;;;;;5067671;28;20202;-63
2022/01/07 04:00:47;;;;;;;25.80;13.53;;;;;;;;;;5066575;28;20226;-63
2022/01/07 04:03:17;;;;;;;27.57;13.47;;;;;;;;;;5080291;28;20247;-62
2022/01/07 04:05:44;;;;;;;29.17;15.03;;;;;;;;;;5095672;28;20285;-62
2022/01/07 04:08:12;;;;;;;28.57;15.13;;;;;;;;;;5062487;28;20212;-63
2022/01/07 04:10:40;;;;;;;29.67;14.37;;;;;;;;;;5083320;28;20208;-62
2022/01/07 04:13:08;;;;;;;27.07;14.30;;;;;;;;;;5059775;28;20208;-63
2022/01/07 04:15:35;;;;;;;30.17;14.23;;;;;;;;;;5087648;28;20204;-62
2022/01/07 04:18:03;;;;;;;29.43;14.67;;;;;;;;;;5066041;28;20246;-62
2022/01/07 04:20:32;;;;;;;25.83;15.13;;;;;;;;;;5068477;28;20215;-62
2022/01/07 04:23:00;;;;;;;28.67;15.20;;;;;;;;;;5089256;28;20205;-62
2022/01/07 04:25:28;;;;;;;22.93;13.23;;;;;;;;;;5060370;28;20245;-62
2022/01/07 04:28:04;;;;;;;26.47;14.57;;;;;;;;;;5087810;28;20285;-62
2022/01/07 04:30:33;;;;;;;28.57;14.47;;;;;;;;;;5076608;28;20248;-62
2022/01/07 04:33:01;;;;;;;25.10;13.87;;;;;;;;;;5063308;28;20618;-62
2022/01/07 04:35:29;;;;;;;18.80;12.33;;;;;;;;;;5061128;28;20535;-62
2022/01/07 04:37:57;;;;;;;22.37;12.47;;;;;;;;;;5064056;28;20217;-62
2022/01/07 04:40:27;;;;;;;27.40;13.70;;;;;;;;;;5063347;28;20225;-62
2022/01/07 04:42:55;;;;;;;26.40;13.83;;;;;;;;;;5061392;28;20659;-62
2022/01/07 04:45:23;;;;;;;21.20;13.67;;;;;;;;;;5089448;28;20205;-62
2022/01/07 04:47:50;;;;;;;19.67;12.50;;;;;;;;;;5058057;28;20235;-62
2022/01/07 04:50:19;;;;;;;21.47;13.33;;;;;;;;;;5092819;27;20260;-62
2022/01/07 04:52:47;;;;;;;22.20;12.93;;;;;;;;;;5067021;28;20208;-61
2022/01/07 04:55:19;;;;;;;20.13;12.87;;;;;;;;;;5079797;27;20335;-64
2022/01/07 04:57:47;;;;;;;21.67;12.63;;;;;;;;;;5050893;28;20232;-62
2022/01/07 05:00:15;;;;;;;23.00;13.27;;;;;;;;;;5051567;28;20251;-61
2022/01/07 05:02:42;;;;;;;20.73;12.70;;;;;;;;;;5054048;28;20262;-63
2022/01/07 05:05:11;;;;;;;19.93;12.50;;;;;;;;;;5051470;28;20211;-63
2022/01/07 05:07:38;;;;;;;21.47;13.00;;;;;;;;;;5086013;28;20233;-63
2022/01/07 05:10:08;;;;;;;18.50;11.83;;;;;;;;;;5050169;28;20466;-62
2022/01/07 05:12:36;;;;;;;17.23;11.10;;;;;;;;;;5050727;28;20216;-62
2022/01/07 05:15:05;;;;;;;16.07;10.70;;;;;;;;;;5053653;28;20204;-62
2022/01/07 05:17:33;;;;;;;18.17;10.73;;;;;;;;;;5067847;28;20240;-62
2022/01/07 05:20:00;;;;;;;16.83;11.10;;;;;;;;;;5057100;28;20205;-62
2022/01/07 05:22:28;;;;;;;17.30;10.63;;;;;;;;;;5038492;28;20222;-62
2022/01/07 05:24:56;;;;;;;17.60;11.10;;;;;;;;;;5046346;28;20613;-63
2022/01/07 05:27:23;;;;;;;18.27;11.13;;;;;;;;;;5051411;28;20242;-61
2022/01/07 05:29:51;;;;;;;16.43;10.40;;;;;;;;;;5053131;28;20251;-62
2022/01/07 05:32:19;;;;;;;15.83;11.30;;;;;;;;;;5056098;28;20253;-62
2022/01/07 05:34:47;;;;;;;19.47;10.63;;;;;;;;;;5066590;28;20283;-61
2022/01/07 05:37:14;;;;;;;17.13;10.70;;;;;;;;;;5066460;28;20236;-62
2022/01/07 05:39:42;;;;;;;16.37;10.17;;;;;;;;;;5056047;28;20283;-61
2022/01/07 05:42:09;;;;;;;12.77;9.20;;;;;;;;;;5062816;28;20732;-63
2022/01/07 05:44:36;;;;;;;13.50;9.53;;;;;;;;;;5083636;28;20221;-62
2022/01/07 05:47:04;;;;;;;16.30;10.40;;;;;;;;;;5052976;28;20232;-62
2022/01/07 05:49:31;;;;;;;13.73;10.07;;;;;;;;;;5064735;28;20214;-62
2022/01/07 05:52:02;;;;;;;16.93;10.47;;;;;;;;;;5055601;28;22206;-63
2022/01/07 05:54:29;;;;;;;14.20;10.63;;;;;;;;;;5062618;28;20576;-61
2022/01/07 05:57:00;;;;;;;11.63;9.23;;;;;;;;;;5069293;28;20228;-61
2022/01/07 05:59:27;;;;;;;14.30;9.43;;;;;;;;;;5056696;28;20276;-63
2022/01/07 06:01:55;;;;;;;15.20;10.73;;;;;;;;;;5067069;28;20229;-63
2022/01/07 06:04:22;;;;;;;13.87;9.53;;;;;;;;;;5074375;28;20212;-61
2022/01/07 06:06:49;;;;;;;13.57;10.23;;;;;;;;;;5094407;27;20266;-62
2022/01/07 06:09:17;;;;;;;12.97;11.13;;;;;;;;;;5059958;28;20232;-62
2022/01/07 06:11:45;;;;;;;11.03;9.70;;;;;;;;;;5080175;28;20219;-61
2022/01/07 06:14:12;;;;;;;11.83;8.47;;;;;;;;;;5102332;27;20207;-61
2022/01/07 06:16:44;;;;;;;14.47;11.67;;;;;;;;;;5095934;27;20251;-63
2022/01/07 06:19:12;;;;;;;16.87;10.67;;;;;;;;;;5069770;28;20246;-63
2022/01/07 06:21:39;;;;;;;11.67;10.00;;;;;;;;;;5092978;27;20694;-63
2022/01/07 06:24:07;;;;;;;18.60;11.47;;;;;;;;;;5067233;28;20309;-62
2022/01/07 06:26:35;;;;;;;16.43;10.80;;;;;;;;;;5068489;28;20256;-62
2022/01/07 06:29:03;;;;;;;13.27;10.33;;;;;;;;;;5069710;28;20223;-62
2022/01/07 06:31:31;;;;;;;16.77;10.87;;;;;;;;;;5063308;28;20212;-63
2022/01/07 06:34:02;;;;;;;15.43;11.23;;;;;;;;;;5068030;28;20212;-62
2022/01/07 06:36:30;;;;;;;15.60;11.40;;;;;;;;;;5073061;28;20725;-62
2022/01/07 06:38:58;;;;;;;14.87;9.90;;;;;;;;;;5077847;28;20212;-62
2022/01/07 06:41:26;;;;;;;15.10;11.20;;;;;;;;;;5071470;28;20208;-62
2022/01/07 06:43:53;;;;;;;15.67;10.43;;;;;;;;;;5066748;28;20197;-62
2022/01/07 06:46:21;;;;;;;18.70;11.70;;;;;;;;;;5063423;28;20229;-62
2022/01/07 06:48:48;;;;;;;16.83;10.83;;;;;;;;;;5065851;28;20282;-62
2022/01/07 06:51:16;;;;;;;18.50;10.70;;;;;;;;;;5058805;28;20791;-62
2022/01/07 06:53:43;;;;;;;15.03;9.77;;;;;;;;;;5069856;28;20204;-62
2022/01/07 06:56:13;;;;;;;17.37;10.63;;;;;;;;;;5066222;28;20218;-62
2022/01/07 06:58:42;;;;;;;17.60;10.97;;;;;;;;;;5063032;28;20288;-63
2022/01/07 07:01:12;;;;;;;16.50;9.83;;;;;;;;;;5064529;28;20213;-62
2022/01/07 07:03:40;;;;;;;16.63;10.10;;;;;;;;;;5087976;27;20790;-61
2022/01/07 07:06:11;;;;;;;14.40;10.10;;;;;;;;;;5061211;28;20254;-62
2022/01/07 07:08:43;;;;;;;14.57;9.90;;;;;;;;;;5074790;28;20776;-63
2022/01/07 07:11:10;;;;;;;18.83;10.83;;;;;;;;;;5055435;28;20204;-61
2022/01/07 07:13:38;;;;;;;16.93;10.40;;;;;;;;;;5095461;27;20215;-61
2022/01/07 07:16:08;;;;;;;19.97;11.07;;;;;;;;;;5074222;28;20282;-62
2022/01/07 07:18:35;;;;;;;19.90;11.57;;;;;;;;;;5055249;28;20332;-61
2022/01/07 07:21:03;;;;;;;15.70;10.60;;;;;;;;;;5057028;28;20641;-63
2022/01/07 07:23:30;;;;;;;24.87;14.97;;;;;;;;;;5054936;28;20544;-61
2022/01/07 07:25:58;;;;;;;18.63;10.80;;;;;;;;;;5088959;27;20232;-62
2022/01/07 07:28:28;;;;;;;16.50;10.20;;;;;;;;;;5085806;28;20281;-63
2022/01/07 07:30:59;;;;;;;19.00;11.80;;;;;;;;;;5063049;28;20712;-62
2022/01/07 07:38:42;;;;;;;19.60;11.30;;;;;;;;;;5073983;28;20306;-61
2022/01/07 07:41:12;;;;;;;17.90;10.90;;;;;;;;;;5071176;28;20722;-61
2022/01/07 07:43:44;;;;;;;19.03;10.63;;;;;;;;;;5057482;28;20204;-63
2022/01/07 07:46:12;;;;;;;14.97;9.80;;;;;;;;;;5064103;28;20224;-62
2022/01/07 07:48:39;;;;;;;17.77;10.40;;;;;;;;;;5068638;28;20227;-62
2022/01/07 07:51:06;;;;;;;19.60;11.30;;;;;;;;;;5074848;28;20631;-63
2022/01/07 07:53:34;;;;;;;16.70;10.53;;;;;;;;;;5054075;28;20220;-63
2022/01/07 07:56:01;;;;;;;13.30;10.07;;;;;;;;;;5067418;28;20640;-62
2022/01/07 07:58:29;;;;;;;17.70;10.50;;;;;;;;;;5089026;27;20201;-61
2022/01/07 08:00:57;;;;;;;14.93;9.87;;;;;;;;;;5066437;28;20198;-63
2022/01/07 08:03:25;;;;;;;14.97;8.93;;;;;;;;;;5053905;28;20611;-63
2022/01/07 08:05:53;;;;;;;14.87;10.00;;;;;;;;;;5069246;28;20244;-63
2022/01/07 08:08:20;;;;;;;16.87;9.93;;;;;;;;;;5051340;28;20209;-61
2022/01/07 08:10:54;;;;;;;16.10;10.23;;;;;;;;;;5092724;27;20664;-62
2022/01/07 08:15:58;;;;;;;17.47;9.70;;;;;;;;;;5067022;28;20193;-62
2022/01/07 08:16:23;;;;;;;15.20;9.60;;;;;;;;;;5077291;28;20798;-63
2022/01/07 08:18:55;;;;;;;13.30;9.33;;;;;;;;;;5065686;28;20589;-61
2022/01/07 08:21:25;;;;;;;13.10;9.13;;;;;;;;;;5076210;28;20225;-61
2022/01/07 08:23:53;;;;;;;16.37;9.40;;;;;;;;;;5078264;28;20559;-62
2022/01/07 08:26:21;;;;;;;12.50;9.70;;;;;;;;;;5054450;28;20227;-61
2022/01/07 08:28:55;;;;;;;15.27;9.90;;;;;;;;;;5071006;28;20235;-62
2022/01/07 08:34:53;;;;;;;16.43;9.97;;;;;;;;;;5064138;28;20205;-63
2022/01/07 08:36:59;;;;;;;12.70;8.30;;;;;;;;;;5078727;28;20254;-61
2022/01/07 08:39:27;;;;;;;13.80;10.10;;;;;;;;;;5079207;28;20206;-62
2022/01/07 08:41:55;;;;;;;14.00;8.33;;;;;;;;;;5059578;28;20220;-61
2022/01/07 08:44:23;;;;;;;14.00;9.40;;;;;;;;;;5079021;28;20205;-61
2022/01/07 08:46:52;;;;;;;13.40;8.83;;;;;;;;;;5079372;28;20223;-63
2022/01/07 08:49:19;;;;;;;13.63;9.43;;;;;;;;;;5057257;28;20232;-61
2022/01/07 08:51:47;;;;;;;13.40;8.63;;;;;;;;;;5058815;28;20214;-61
2022/01/07 08:54:20;;;;;;;14.00;8.30;;;;;;;;;;5062574;28;20197;-61
2022/01/07 08:56:50;;;;;;;12.63;8.30;;;;;;;;;;5080030;28;20309;-61
2022/01/07 08:59:17;;;;;;;12.20;8.87;;;;;;;;;;5075608;28;20204;-63
2022/01/07 09:01:45;;;;;;;11.03;8.17;;;;;;;;;;5074089;28;20255;-61
2022/01/07 09:04:12;;;;;;;14.13;8.43;;;;;;;;;;5068661;28;20693;-61
2022/01/07 09:06:44;;;;;;;11.40;7.67;;;;;;;;;;5065585;28;20247;-61
2022/01/07 09:09:11;;;;;;;11.73;8.43;;;;;;;;;;5061879;28;20888;-62
2022/01/07 09:11:41;;;;;;;12.97;8.33;;;;;;;;;;5092077;28;20296;-62
2022/01/07 09:14:09;;;;;;;15.60;10.30;;;;;;;;;;5068026;28;21065;-63
2022/01/07 09:16:36;;;;;;;13.33;9.70;;;;;;;;;;5067644;28;20253;-62
2022/01/07 09:19:03;;;;;;;11.93;8.07;;;;;;;;;;5050549;28;20232;-62
2022/01/07 09:21:31;;;;;;;11.23;8.30;;;;;;;;;;5054320;28;20241;-62
2022/01/07 09:23:58;;;;;;;14.87;9.47;;;;;;;;;;5089272;28;20235;-62
2022/01/07 09:26:26;;;;;;;11.87;8.77;;;;;;;;;;5092567;28;20306;-62
2022/01/07 09:28:53;;;;;;;13.53;9.67;;;;;;;;;;5094123;27;20221;-62
2022/01/07 09:31:21;;;;;;;17.60;10.23;;;;;;;;;;5057550;28;20201;-61
2022/01/07 09:33:48;;;;;;;15.33;9.53;;;;;;;;;;5055613;28;20339;-61
2022/01/07 09:36:28;;;;;;;14.47;9.53;;;;;;;;;;5050583;28;20244;-62
2022/01/07 09:38:55;;;;;;;15.97;11.17;;;;;;;;;;5057246;28;20225;-61
2022/01/07 09:41:23;;;;;;;15.50;10.57;;;;;;;;;;5055782;28;20212;-62
2022/01/07 09:43:50;;;;;;;16.60;11.20;;;;;;;;;;5054858;28;22350;-63
2022/01/07 09:46:18;;;;;;;16.17;10.83;;;;;;;;;;5059177;28;20619;-62
2022/01/07 09:48:46;;;;;;;14.57;9.93;;;;;;;;;;5057190;28;20232;-61
2022/01/07 09:51:17;;;;;;;16.73;11.40;;;;;;;;;;5060516;28;20223;-61
2022/01/07 09:53:47;;;;;;;15.23;11.03;;;;;;;;;;5058324;28;20212;-62
2022/01/07 09:56:15;;;;;;;16.97;11.07;;;;;;;;;;5050903;28;20228;-62
2022/01/07 09:58:42;;;;;;;13.63;9.93;;;;;;;;;;5052855;28;20204;-62
2022/01/07 10:01:09;;;;;;;17.20;10.90;;;;;;;;;;5059433;28;20220;-61
2022/01/07 10:03:41;;;;;;;17.27;9.87;;;;;;;;;;5057582;28;20215;-61
2022/01/07 10:06:24;;;;;;;13.87;9.87;;;;;;;;;;5071969;28;20232;-63
2022/01/07 10:09:01;;;;;;;12.63;9.77;;;;;;;;;;5067351;28;20225;-61
2022/01/07 10:11:29;;;;;;;15.20;9.47;;;;;;;;;;5070654;28;20249;-61
2022/01/07 10:14:16;;;;;;;13.80;10.03;;;;;;;;;;5057614;28;20205;-63
2022/01/07 10:16:47;;;;;;;15.10;10.40;;;;;;;;;;5061724;28;20340;-61
2022/01/07 10:19:33;;;;;;;16.30;9.63;;;;;;;;;;5075442;28;20271;-62
2022/01/07 10:22:05;;;;;;;12.70;9.03;;;;;;;;;;5093813;27;20588;-61
2022/01/07 10:24:52;;;;;;;14.77;10.10;;;;;;;;;;5077043;28;20212;-61
2022/01/07 10:27:20;;;;;;;12.90;8.70;;;;;;;;;;5081570;28;20271;-61
2022/01/07 10:29:47;;;;;;;12.60;8.80;;;;;;;;;;5084057;28;20277;-61
2022/01/07 10:32:21;;;;;;;16.60;10.37;;;;;;;;;;5089405;28;20634;-61
2022/01/07 10:35:09;;;;;;;13.03;9.67;;;;;;;;;;5063980;28;20193;-61
2022/01/07 10:37:38;;;;;;;16.13;10.47;;;;;;;;;;5065222;28;20698;-61
2022/01/07 10:40:20;;;;;;;14.20;10.37;;;;;;;;;;5064413;28;20208;-62
2022/01/07 10:43:08;;;;;;;12.10;9.43;;;;;;;;;;5062151;28;20261;-62
2022/01/07 10:45:36;;;;;;;12.70;9.33;;;;;;;;;;5061533;28;20339;-61
2022/01/07 10:48:03;;;;;;;14.07;10.30;;;;;;;;;;5077733;28;20206;-62
2022/01/07 10:50:31;;;;;;;15.77;9.90;;;;;;;;;;5083284;27;20212;-61
2022/01/07 10:53:25;;;;;;;13.97;10.20;;;;;;;;;;5050020;28;20216;-63
2022/01/07 10:56:15;;;;;;;14.47;10.50;;;;;;;;;;5055212;28;20312;-61
2022/01/07 10:58:45;;;;;;;13.77;9.93;;;;;;;;;;5055931;28;20251;-61
2022/01/07 11:01:21;;;;;;;16.00;10.10;;;;;;;;;;5058839;28;20209;-61
2022/01/07 11:03:50;;;;;;;17.00;11.03;;;;;;;;;;5073265;28;20213;-61
2022/01/07 11:06:18;;;;;;;12.90;9.67;;;;;;;;;;5047631;28;20371;-62
2022/01/07 11:08:48;;;;;;;13.57;9.20;;;;;;;;;;5044011;28;20228;-61
2022/01/07 11:11:16;;;;;;;12.87;9.57;;;;;;;;;;5054181;28;20734;-62
2022/01/07 11:13:43;;;;;;;13.90;9.50;;;;;;;;;;5057469;28;20286;-62
2022/01/07 11:16:11;;;;;;;14.07;10.57;;;;;;;;;;5066651;28;20225;-61
2022/01/07 11:18:40;;;;;;;16.50;9.97;;;;;;;;;;5074603;28;21000;-62
2022/01/07 11:21:08;;;;;;;13.80;9.57;;;;;;;;;;5074287;28;20420;-62
2022/01/07 11:23:39;;;;;;;19.00;9.57;;;;;;;;;;5092100;27;20212;-62
2022/01/07 11:26:10;;;;;;;12.90;9.93;;;;;;;;;;5063452;28;20279;-62
2022/01/07 11:28:54;;;;;;;14.83;10.23;;;;;;;;;;5070182;28;20220;-61
2022/01/07 11:31:22;;;;;;;16.53;9.90;;;;;;;;;;5062943;28;20274;-62
2022/01/07 11:34:09;;;;;;;16.50;10.70;;;;;;;;;;5072429;28;20211;-62
2022/01/07 11:36:38;;;;;;;14.57;9.67;;;;;;;;;;5100961;27;20236;-62
2022/01/07 11:39:06;;;;;;;15.23;11.23;;;;;;;;;;5067581;28;20213;-61
2022/01/07 11:41:47;;;;;;;17.73;11.27;;;;;;;;;;5063803;28;20200;-62
2022/01/07 11:44:21;;;;;;;13.30;9.93;;;;;;;;;;5072780;28;20279;-61
2022/01/07 11:46:51;;;;;;;14.90;9.93;;;;;;;;;;5097410;27;20227;-61
2022/01/07 11:49:37;;;;;;;16.13;10.27;;;;;;;;;;5052166;28;20217;-63
2022/01/07 11:52:25;;;;;;;18.13;11.20;;;;;;;;;;5052560;28;20592;-61
2022/01/07 11:55:20;;;;;;;16.80;10.90;;;;;;;;;;5060946;28;20718;-61
2022/01/07 11:57:58;;;;;;;14.23;10.10;;;;;;;;;;5086797;27;20248;-61
2022/01/07 12:00:44;;;;;;;15.60;10.13;;;;;;;;;;5090702;27;20302;-61
2022/01/07 12:03:12;;;;;;;14.37;10.37;;;;;;;;;;5075642;28;20243;-61
2022/01/07 12:05:39;;;;;;;17.37;11.40;;;;;;;;;;5083995;28;20258;-61
2022/01/07 12:08:07;;;;;;;15.40;10.13;;;;;;;;;;5061921;28;20262;-61
2022/01/07 12:10:34;;;;;;;14.23;11.07;;;;;;;;;;5075100;28;20320;-62
2022/01/07 12:13:01;;;;;;;14.90;11.03;;;;;;;;;;5074714;28;20201;-62
2022/01/07 12:15:29;;;;;;;13.90;10.20;;;;;;;;;;5074986;28;20205;-62
2022/01/07 12:18:08;;;;;;;15.00;9.90;;;;;;;;;;5062239;28;20210;-62
2022/01/07 12:20:46;;;;;;;16.23;9.93;;;;;;;;;;5094098;27;21284;-63
2022/01/07 12:23:18;;;;;;;12.17;9.43;;;;;;;;;;5068966;28;20198;-61
2022/01/07 12:25:51;;;;;;;12.90;8.57;;;;;;;;;;5067676;28;20322;-62
2022/01/07 12:28:22;;;;;;;13.83;8.80;;;;;;;;;;5077082;28;20266;-62
2022/01/07 12:30:51;;;;;;;12.00;8.53;;;;;;;;;;5056018;28;20248;-62
2022/01/07 12:33:19;;;;;;;12.73;8.30;;;;;;;;;;5093121;27;20824;-62
2022/01/07 12:35:46;;;;;;;12.63;9.13;;;;;;;;;;5065727;28;20206;-61
2022/01/07 12:38:20;;;;;;;11.33;8.50;;;;;;;;;;5057781;28;20206;-62
2022/01/07 12:40:51;;;;;;;11.63;9.00;;;;;;;;;;5095689;27;20224;-63
2022/01/07 12:43:22;;;;;;;9.97;7.50;;;;;;;;;;5060242;28;20213;-62
2022/01/07 12:46:00;;;;;;;9.13;7.37;;;;;;;;;;5062217;28;20880;-63
2022/01/07 12:48:31;;;;;;;9.97;7.80;;;;;;;;;;5043989;28;20415;-61
2022/01/07 12:51:02;;;;;;;9.30;8.00;;;;;;;;;;5061336;28;20193;-61
2022/01/07 12:53:29;;;;;;;11.43;8.23;;;;;;;;;;5074761;28;20202;-64
2022/01/07 12:56:19;;;;;;;10.27;7.87;;;;;;;;;;5076005;28;20234;-63
2022/01/07 12:58:47;;;;;;;21.50;11.77;;;;;;;;;;5067055;28;20790;-61
2022/01/07 13:01:29;;;;;;;13.77;9.70;;;;;;;;;;5066850;28;20213;-61
2022/01/07 13:04:04;;;;;;;9.13;7.67;;;;;;;;;;5056382;28;20203;-61
2022/01/07 13:06:32;;;;;;;8.47;6.90;;;;;;;;;;5054731;28;20690;-61
2022/01/07 13:08:59;;;;;;;12.90;8.63;;;;;;;;;;5078992;28;20249;-61
2022/01/07 13:11:29;;;;;;;10.33;7.77;;;;;;;;;;5091142;28;20209;-63
2022/01/07 13:14:02;;;;;;;14.07;8.37;;;;;;;;;;5059396;28;20205;-61
2022/01/07 13:16:30;;;;;;;10.57;8.50;;;;;;;;;;5068097;28;20226;-63
2022/01/07 13:19:11;;;;;;;13.27;7.93;;;;;;;;;;5057281;28;20219;-61
2022/01/07 13:21:42;;;;;;;10.27;7.53;;;;;;;;;;5064201;28;20733;-64
2022/01/07 13:24:22;;;;;;;11.27;7.90;;;;;;;;;;5102720;28;20247;-62
2022/01/07 13:26:54;;;;;;;12.27;8.00;;;;;;;;;;5061979;28;20238;-61
2022/01/07 13:29:29;;;;;;;15.17;7.90;;;;;;;;;;5060659;28;20270;-62
2022/01/07 13:32:01;;;;;;;12.60;7.67;;;;;;;;;;5100314;28;20725;-61
2022/01/07 13:34:37;;;;;;;8.30;7.07;;;;;;;;;;5099557;28;20266;-64
2022/01/07 13:37:10;;;;;;;9.00;6.80;;;;;;;;;;5084663;28;20875;-63
2022/01/07 13:39:39;;;;;;;9.37;6.60;;;;;;;;;;5048168;28;20716;-61
2022/01/07 13:42:09;;;;;;;9.27;7.00;;;;;;;;;;5062215;28;20213;-61
2022/01/07 13:44:56;;;;;;;9.27;7.03;;;;;;;;;;5042825;28;20295;-63
2022/01/07 13:47:28;;;;;;;12.03;7.33;;;;;;;;;;5058744;28;20230;-61
2022/01/07 13:50:17;;;;;;;9.10;6.70;;;;;;;;;;5045725;28;20231;-62
2022/01/07 13:52:45;;;;;;;9.50;5.90;;;;;;;;;;5051850;28;20255;-62
2022/01/07 13:55:28;;;;;;;7.67;6.43;;;;;;;;;;5069991;28;20265;-63
2022/01/07 13:58:06;;;;;;;11.13;6.77;;;;;;;;;;5072019;28;20202;-63
2022/01/07 14:00:36;;;;;;;9.93;6.97;;;;;;;;;;5078301;28;20218;-63
2022/01/07 14:03:04;;;;;;;8.03;6.80;;;;;;;;;;5070780;28;20220;-61
2022/01/07 14:05:32;;;;;;;10.87;6.63;;;;;;;;;;5053645;28;20231;-62
2022/01/07 14:08:00;;;;;;;6.70;6.00;;;;;;;;;;5065862;28;20204;-63
2022/01/07 14:10:35;;;;;;;8.10;6.23;;;;;;;;;;5097546;28;20641;-62
2022/01/07 14:13:14;;;;;;;9.10;6.20;;;;;;;;;;5092140;28;20237;-63
2022/01/07 14:15:42;;;;;;;7.03;5.77;;;;;;;;;;5063902;28;20198;-62
2022/01/07 14:18:25;;;;;;;10.50;6.23;;;;;;;;;;5066032;28;20205;-61
2022/01/07 14:20:52;;;;;;;10.37;6.43;;;;;;;;;;5056761;28;20581;-61
2022/01/07 14:23:22;;;;;;;9.30;6.73;;;;;;;;;;5078440;28;20203;-63
2022/01/07 14:25:50;;;;;;;13.83;6.77;;;;;;;;;;5086674;27;20251;-61
2022/01/07 14:28:19;;;;;;;8.20;6.20;;;;;;;;;;5092009;27;20625;-61
2022/01/07 14:30:48;;;;;;;6.53;5.30;;;;;;;;;;5069435;28;20553;-62
2022/01/07 14:33:16;;;;;;;7.97;6.60;;;;;;;;;;5094187;27;20670;-61
2022/01/07 14:35:44;;;;;;;8.93;5.93;;;;;;;;;;5051086;28;20213;-62
2022/01/07 14:38:12;;;;;;;9.23;6.17;;;;;;;;;;5084348;27;20237;-61
2022/01/07 14:40:41;;;;;;;7.07;6.13;;;;;;;;;;5059450;28;20249;-63
2022/01/07 14:43:10;;;;;;;9.37;6.33;;;;;;;;;;5076467;28;20201;-62
2022/01/07 14:45:37;;;;;;;9.47;6.20;;;;;;;;;;5075339;28;20270;-64
2022/01/07 14:48:07;;;;;;;6.67;5.50;;;;;;;;;;5062444;28;20201;-61
2022/01/07 14:50:35;;;;;;;9.77;6.13;;;;;;;;;;5058524;28;20264;-64
2022/01/07 14:53:03;;;;;;;8.17;6.27;;;;;;;;;;5066244;28;20257;-62